Terminal Aerodrome Forecast
Issued by NWS

Home | Current Version | Previous Version | Text Only | Print | Product List | Glossary On
Versions: 1 2 3 4 5 6 7 8 9 10 11 12 13 14
000
FTAK31 PAFA 242336
TAFAMC
TAF
PAMC 242336Z 2500/2524 26006KT P6SM VCSH BKN050 BKN090
     FM250200 23006KT P6SM -SHRA SCT025 BKN040 OVC080
     FM251200 21006KT P6SM -SHRA BKN025 OVC040
     FM251500 21006KT 6SM -RA OVC025=

USA.gov is the U.S. government's official web portal to all federal, state and local government web resources and services.